Time;durP1;ratioP1;P1;durP2;ratioP2;P2;SDS_P1;SDS_P2;PMS_P1;PMS_P2;Temp;Humidity;BMP_temperature;BMP_pressure;BME280_temperature;BME280_humidity;BME280_pressure;Samples;Min_cycle;Max_cycle;Signal;HPM_P1;HPM_P2
2024/01/13 00:01:24;;;;;;;0.00;0.00;;;;;;;4.08;79.05;101885.38;4966179;28;20034;-78
2024/01/13 00:03:49;;;;;;;0.00;0.00;;;;;;;4.05;79.41;101885.75;4954484;28;20481;-78
2024/01/13 00:06:15;;;;;;;0.00;0.00;;;;;;;4.00;78.96;101879.03;4961988;28;20046;-78
2024/01/13 00:08:41;;;;;;;0.00;0.00;;;;;;;4.04;78.92;101889.47;4964902;28;20031;-76
2024/01/13 00:11:06;;;;;;;0.10;0.10;;;;;;;4.00;79.37;101884.44;4948698;28;20045;-79
2024/01/13 00:13:31;;;;;;;0.00;0.00;;;;;;;4.01;79.16;101891.50;4966170;28;20039;-78
2024/01/13 00:15:57;;;;;;;0.00;0.00;;;;;;;3.97;78.90;101889.38;4961074;28;20109;-77
2024/01/13 00:18:22;;;;;;;0.00;0.00;;;;;;;3.88;79.71;101893.19;4956190;28;20056;-78
2024/01/13 00:20:48;;;;;;;0.00;0.00;;;;;;;3.86;78.96;101898.81;4942089;28;20038;-77
2024/01/13 00:23:13;;;;;;;0.00;0.00;;;;;;;3.81;79.95;101885.84;4964013;28;20062;-78
2024/01/13 00:25:39;;;;;;;0.00;0.00;;;;;;;3.89;79.71;101893.00;4947749;28;20093;-78
2024/01/13 00:28:04;;;;;;;0.00;0.00;;;;;;;3.90;79.70;101889.28;4953290;28;20041;-78
2024/01/13 00:30:30;;;;;;;0.00;0.00;;;;;;;3.91;79.80;101887.41;4955216;28;20049;-77
2024/01/13 00:32:55;;;;;;;0.10;0.10;;;;;;;3.94;79.36;101895.16;4972523;28;20470;-76
2024/01/13 00:35:20;;;;;;;0.00;0.00;;;;;;;3.97;79.30;101895.66;4959794;28;20030;-77
2024/01/13 00:37:46;;;;;;;0.05;0.05;;;;;;;3.93;79.77;101893.47;4944320;28;20138;-79
2024/01/13 00:40:14;;;;;;;0.00;0.00;;;;;;;3.90;79.82;101889.28;4958844;28;20035;-77
2024/01/13 00:42:43;;;;;;;0.00;0.00;;;;;;;3.96;79.42;101899.38;4937222;28;20074;-77
2024/01/13 00:45:08;;;;;;;0.00;0.00;;;;;;;3.94;79.68;101881.63;4958207;28;20049;-77
2024/01/13 00:47:34;;;;;;;0.00;0.00;;;;;;;4.00;79.63;101879.03;4935963;28;20026;-77
2024/01/13 00:49:59;;;;;;;0.00;0.00;;;;;;;4.05;79.36;101880.34;4959010;28;20123;-78
2024/01/13 00:52:27;;;;;;;0.00;0.00;;;;;;;3.95;79.05;101857.06;4945567;28;20042;-77
2024/01/13 00:54:53;;;;;;;0.00;0.00;;;;;;;3.95;79.50;101870.59;4957999;28;20045;-77
2024/01/13 00:57:18;;;;;;;0.00;0.00;;;;;;;3.87;79.54;101851.78;4981107;28;20031;-78
2024/01/13 00:59:43;;;;;;;0.00;0.00;;;;;;;3.92;79.42;101853.91;4949163;28;20026;-76
2024/01/13 01:02:09;;;;;;;0.00;0.00;;;;;;;3.86;79.06;101847.38;4982947;28;20023;-76
2024/01/13 01:04:34;;;;;;;0.00;0.00;;;;;;;3.78;78.67;101836.63;4961171;28;20026;-77
2024/01/13 01:07:00;;;;;;;0.00;0.00;;;;;;;3.67;78.29;101856.88;4950940;28;20022;-77
2024/01/13 01:09:25;;;;;;;0.10;0.10;;;;;;;3.59;79.28;101849.72;4956339;28;20023;-77
2024/01/13 01:11:51;;;;;;;0.10;0.10;;;;;;;3.53;79.17;101842.31;4956277;28;20034;-77
2024/01/13 01:14:19;;;;;;;0.00;0.00;;;;;;;3.44;79.50;101827.19;4963831;28;20479;-78
2024/01/13 01:16:44;;;;;;;0.00;0.00;;;;;;;3.49;80.10;101828.31;4936535;28;20196;-77
2024/01/13 01:19:10;;;;;;;0.00;0.00;;;;;;;3.61;80.12;101833.28;4984263;28;20082;-78
2024/01/13 01:21:35;;;;;;;0.00;0.00;;;;;;;3.59;79.97;101821.78;4939283;28;20030;-80
2024/01/13 01:24:00;;;;;;;0.00;0.00;;;;;;;3.60;79.72;101829.72;4940262;28;20030;-78
2024/01/13 01:26:26;;;;;;;0.00;0.00;;;;;;;3.51;80.61;101813.78;4958223;28;20454;-78
2024/01/13 01:28:51;;;;;;;0.00;0.00;;;;;;;3.54;80.20;101825.06;4936660;28;20092;-77
2024/01/13 01:31:16;;;;;;;0.00;0.00;;;;;;;3.62;80.27;101830.41;4947648;28;20094;-76
2024/01/13 01:33:42;;;;;;;0.00;0.00;;;;;;;3.52;79.34;101810.03;4949186;28;20030;-76
2024/01/13 01:36:08;;;;;;;0.00;0.00;;;;;;;3.57;79.70;101816.56;4965245;28;20062;-80
2024/01/13 01:38:33;;;;;;;0.00;0.00;;;;;;;3.47;80.08;101807.88;4968579;28;20069;-79
2024/01/13 01:40:59;;;;;;;0.00;0.00;;;;;;;3.47;80.03;101805.19;4960910;28;20057;-78
2024/01/13 01:43:24;;;;;;;0.10;0.10;;;;;;;3.56;80.59;101811.34;4967423;28;20393;-78
2024/01/13 01:45:54;;;;;;;0.00;0.00;;;;;;;3.67;80.39;101814.44;4952861;28;20147;-78
2024/01/13 01:48:27;;;;;;;0.00;0.00;;;;;;;3.62;80.47;101795.22;4972648;28;20070;-79
2024/01/13 01:50:53;;;;;;;0.00;0.00;;;;;;;3.71;79.87;101803.22;4961556;28;20022;-78
2024/01/13 01:53:19;;;;;;;0.00;0.00;;;;;;;3.73;80.75;101791.22;4958602;28;20105;-79
2024/01/13 01:55:45;;;;;;;0.00;0.00;;;;;;;3.75;80.21;101799.13;4964046;28;20042;-78
2024/01/13 01:58:10;;;;;;;0.00;0.00;;;;;;;3.66;80.31;101785.72;4959952;28;20023;-78
2024/01/13 02:00:36;;;;;;;0.00;0.00;;;;;;;3.67;80.27;101792.78;4974642;28;20433;-79
2024/01/13 02:03:02;;;;;;;0.00;0.00;;;;;;;3.47;80.29;101775.44;4941849;28;20099;-78
2024/01/13 02:05:28;;;;;;;0.00;0.00;;;;;;;3.43;81.11;101780.41;4955747;28;20029;-78
2024/01/13 02:07:54;;;;;;;0.00;0.00;;;;;;;3.36;81.18;101763.22;4973107;28;20026;-77
2024/01/13 02:10:20;;;;;;;0.00;0.00;;;;;;;3.48;80.63;101774.41;4946275;28;20030;-77
2024/01/13 02:12:46;;;;;;;0.00;0.00;;;;;;;3.47;80.71;101767.31;4962584;28;20030;-77
2024/01/13 02:15:11;;;;;;;0.00;0.00;;;;;;;3.53;81.19;101769.28;4955648;28;20057;-78
2024/01/13 02:17:37;;;;;;;0.00;0.00;;;;;;;3.54;81.04;101762.84;4949838;28;20069;-79
2024/01/13 02:20:05;;;;;;;0.00;0.00;;;;;;;3.46;80.64;101757.53;4978020;28;20026;-79
2024/01/13 02:22:33;;;;;;;0.00;0.00;;;;;;;3.47;80.54;101759.22;4957213;28;20117;-79
2024/01/13 02:25:09;;;;;;;0.00;0.00;;;;;;;3.53;81.00;101763.88;4955487;28;20018;-78
2024/01/13 02:27:34;;;;;;;0.00;0.00;;;;;;;3.53;80.56;101754.91;4947334;28;20030;-77
2024/01/13 02:29:59;;;;;;;0.00;0.00;;;;;;;3.40;81.01;101739.34;4968953;28;20478;-78
2024/01/13 02:32:25;;;;;;;0.00;0.00;;;;;;;3.39;80.57;101737.66;4947371;28;20408;-78
2024/01/13 02:34:50;;;;;;;0.00;0.00;;;;;;;3.28;80.56;101728.16;4950932;28;20046;-78
2024/01/13 02:37:16;;;;;;;0.00;0.00;;;;;;;3.24;80.70;101732.25;4972667;28;20046;-75
2024/01/13 02:39:42;;;;;;;0.00;0.00;;;;;;;3.21;81.22;101730.75;4953546;28;20031;-75
2024/01/13 02:42:08;;;;;;;0.00;0.00;;;;;;;3.23;80.61;101739.53;4961576;28;20050;-75
2024/01/13 02:44:34;;;;;;;0.00;0.00;;;;;;;3.23;81.29;101731.41;4959057;28;20042;-76
2024/01/13 02:46:59;;;;;;;0.00;0.00;;;;;;;3.28;81.32;101734.38;4962430;28;20049;-76
2024/01/13 02:49:25;;;;;;;0.10;0.10;;;;;;;3.17;81.31;101715.94;4947683;28;20514;-77
2024/01/13 02:51:50;;;;;;;0.00;0.00;;;;;;;3.12;80.68;101718.34;4941234;28;20453;-78
2024/01/13 02:54:18;;;;;;;0.00;0.00;;;;;;;3.06;81.29;101724.50;4966062;28;20120;-78
2024/01/13 02:56:43;;;;;;;0.00;0.00;;;;;;;3.05;81.65;101717.41;4968735;28;20078;-77
2024/01/13 02:59:09;;;;;;;0.00;0.00;;;;;;;3.12;81.54;101719.19;4939784;28;20682;-77
2024/01/13 03:01:34;;;;;;;0.00;0.00;;;;;;;3.11;81.88;101712.13;4957937;28;21779;-77
2024/01/13 03:04:00;;;;;;;0.00;0.00;;;;;;;3.06;81.06;101709.13;4965237;28;20022;-78
2024/01/13 03:06:26;;;;;;;0.00;0.00;;;;;;;3.01;81.74;101702.56;4983910;28;20033;-79
2024/01/13 03:08:53;;;;;;;0.00;0.00;;;;;;;2.97;82.30;101694.84;4962393;28;20022;-77
2024/01/13 03:11:19;;;;;;;0.00;0.00;;;;;;;3.02;81.81;101701.56;4968671;28;20091;-79
2024/01/13 03:13:47;;;;;;;0.00;0.00;;;;;;;3.05;82.46;101706.59;4959216;28;20058;-80
2024/01/13 03:16:13;;;;;;;0.00;0.00;;;;;;;2.89;82.63;101676.03;4950777;28;20074;-79
2024/01/13 03:18:38;;;;;;;0.00;0.00;;;;;;;2.85;82.74;101680.13;4970971;28;20040;-79
2024/01/13 03:21:04;;;;;;;0.05;0.05;;;;;;;2.89;82.82;101686.84;4971873;28;20125;-80
2024/01/13 03:23:30;;;;;;;0.00;0.00;;;;;;;2.89;82.20;101686.84;4971962;28;20084;-79
2024/01/13 03:25:56;;;;;;;0.00;0.00;;;;;;;2.87;83.08;101683.47;4962498;28;20038;-80
2024/01/13 03:28:22;;;;;;;0.00;0.00;;;;;;;2.94;83.36;101684.41;4966673;28;20358;-80
2024/01/13 03:30:48;;;;;;;0.00;0.00;;;;;;;2.79;82.63;101660.06;4954257;28;20437;-78
2024/01/13 03:33:14;;;;;;;0.00;0.00;;;;;;;2.85;83.11;101666.59;4968607;28;20011;-78
2024/01/13 03:35:40;;;;;;;0.00;0.00;;;;;;;2.84;83.26;101667.63;4949833;28;20030;-77
2024/01/13 03:38:05;;;;;;;0.00;0.00;;;;;;;2.76;83.12;101654.19;4956070;28;20157;-77
2024/01/13 03:40:31;;;;;;;0.00;0.00;;;;;;;2.77;83.17;101661.28;4959158;28;20038;-77
2024/01/13 03:42:56;;;;;;;0.10;0.10;;;;;;;2.73;83.48;101649.16;4944947;28;20486;-79
2024/01/13 03:45:22;;;;;;;0.00;0.00;;;;;;;2.84;83.79;101656.81;4959527;28;20038;-78
2024/01/13 03:47:47;;;;;;;0.00;0.00;;;;;;;2.90;83.43;101655.25;4939655;28;20530;-77
2024/01/13 03:50:14;;;;;;;0.00;0.00;;;;;;;2.92;82.92;101643.22;4946346;28;20078;-78
2024/01/13 03:52:39;;;;;;;0.00;0.00;;;;;;;2.91;83.66;101630.72;4967805;28;20429;-79
2024/01/13 03:55:05;;;;;;;0.00;0.00;;;;;;;2.86;83.40;101633.16;4958451;28;20038;-78
2024/01/13 03:57:31;;;;;;;0.00;0.00;;;;;;;2.76;83.40;101610.97;4975601;28;20056;-78
2024/01/13 03:59:56;;;;;;;0.00;0.00;;;;;;;2.81;83.25;101611.25;4962451;28;20035;-77
2024/01/13 04:02:21;;;;;;;0.00;0.00;;;;;;;2.83;83.51;101602.97;4963271;28;20046;-77
2024/01/13 04:04:47;;;;;;;0.00;0.00;;;;;;;2.90;83.70;101602.03;4975960;28;20027;-78
2024/01/13 04:07:12;;;;;;;0.00;0.00;;;;;;;2.92;83.48;101600.00;4949352;28;20034;-76
2024/01/13 04:09:39;;;;;;;0.00;0.00;;;;;;;2.87;83.32;101602.41;4961550;28;20039;-77
2024/01/13 04:12:05;;;;;;;0.00;0.00;;;;;;;2.89;83.92;101600.38;4958905;28;21418;-77
2024/01/13 04:14:31;;;;;;;0.00;0.00;;;;;;;2.83;83.03;101589.47;4967539;28;20045;-76
2024/01/13 04:16:56;;;;;;;0.00;0.00;;;;;;;2.87;83.76;101588.91;4945189;28;20137;-77
2024/01/13 04:19:22;;;;;;;0.00;0.00;;;;;;;2.90;83.69;101585.00;4954338;28;20090;-76
2024/01/13 04:21:47;;;;;;;0.00;0.00;;;;;;;2.91;83.59;101587.50;4942123;28;20014;-76
2024/01/13 04:24:15;;;;;;;0.00;0.00;;;;;;;2.78;83.53;101573.81;4943846;28;20014;-77
2024/01/13 04:26:41;;;;;;;0.00;0.00;;;;;;;2.69;83.77;101572.25;4965328;28;20370;-78
2024/01/13 04:29:06;;;;;;;0.00;0.00;;;;;;;2.72;83.54;101572.69;4932627;28;20041;-77
2024/01/13 04:31:31;;;;;;;0.00;0.00;;;;;;;2.75;84.01;101571.50;4945274;28;20023;-77
2024/01/13 04:33:57;;;;;;;0.10;0.10;;;;;;;2.77;83.84;101577.53;4948143;28;20040;-79
2024/01/13 04:36:22;;;;;;;0.00;0.00;;;;;;;2.74;83.56;101567.94;4958300;28;20065;-78
2024/01/13 04:38:49;;;;;;;0.00;0.00;;;;;;;2.72;83.58;101561.06;4972108;28;20490;-79
2024/01/13 04:41:15;;;;;;;0.00;0.00;;;;;;;2.71;83.51;101565.59;4984972;28;20096;-79
2024/01/13 04:43:42;;;;;;;0.00;0.00;;;;;;;2.61;83.26;101578.53;4973291;28;20023;-78
2024/01/13 04:46:10;;;;;;;0.00;0.00;;;;;;;2.49;83.64;101559.25;4958414;28;20023;-79
2024/01/13 04:48:36;;;;;;;0.00;0.00;;;;;;;2.48;84.10;101571.06;4995221;28;20030;-79
2024/01/13 04:51:01;;;;;;;0.00;0.00;;;;;;;2.52;83.57;101572.38;4993114;28;20534;-79
2024/01/13 04:53:26;;;;;;;0.00;0.00;;;;;;;2.50;83.67;101568.19;4964537;28;20042;-79
2024/01/13 04:55:52;;;;;;;0.00;0.00;;;;;;;2.52;84.19;101560.75;4960167;28;20535;-80
2024/01/13 04:58:18;;;;;;;0.00;0.00;;;;;;;2.59;84.10;101559.00;4943505;28;20026;-77
2024/01/13 05:00:45;;;;;;;0.00;0.00;;;;;;;2.64;83.71;101561.13;4959422;28;20056;-78
2024/01/13 05:03:11;;;;;;;0.00;0.00;;;;;;;2.59;83.95;101551.72;4953986;28;20441;-79
2024/01/13 05:05:36;;;;;;;0.00;0.00;;;;;;;2.56;84.05;101553.97;4953670;28;20039;-79
2024/01/13 05:08:02;;;;;;;0.00;0.00;;;;;;;2.59;83.84;101567.94;4946057;28;20062;-77
2024/01/13 05:10:27;;;;;;;0.00;0.00;;;;;;;2.53;84.15;101560.56;4955026;28;20065;-78
2024/01/13 05:12:53;;;;;;;0.00;0.00;;;;;;;2.56;83.50;101557.50;4956222;28;20377;-78
2024/01/13 05:15:21;;;;;;;0.00;0.00;;;;;;;2.60;84.17;101558.81;4969740;28;20027;-79
2024/01/13 05:17:46;;;;;;;0.00;0.00;;;;;;;2.53;83.63;101560.56;4961671;28;20122;-77
2024/01/13 05:20:12;;;;;;;0.00;0.00;;;;;;;2.41;83.72;101548.53;4946215;28;20117;-78
2024/01/13 05:22:37;;;;;;;0.00;0.00;;;;;;;2.35;84.15;101543.88;4968320;28;20069;-78
2024/01/13 05:25:03;;;;;;;0.00;0.00;;;;;;;2.27;84.38;101539.41;4948663;28;20096;-77
2024/01/13 05:27:28;;;;;;;0.00;0.00;;;;;;;2.17;84.08;101530.72;4936634;28;20057;-79
2024/01/13 05:29:54;;;;;;;0.10;0.10;;;;;;;2.24;84.82;101532.50;4950772;28;20030;-79
2024/01/13 05:32:19;;;;;;;0.00;0.00;;;;;;;2.28;84.47;101530.31;4966320;28;20038;-79
2024/01/13 05:34:45;;;;;;;0.00;0.00;;;;;;;2.34;84.67;101526.03;4963191;28;20035;-79
2024/01/13 05:37:10;;;;;;;0.00;0.00;;;;;;;2.38;84.56;101517.38;4957184;28;20026;-79
2024/01/13 05:39:35;;;;;;;0.00;0.00;;;;;;;2.44;84.78;101516.63;4954251;28;20394;-79
2024/01/13 05:42:08;;;;;;;0.00;0.00;;;;;;;2.42;84.76;101521.38;4990732;28;20054;-80
2024/01/13 05:44:34;;;;;;;0.00;0.00;;;;;;;2.38;84.73;101517.38;4952097;28;20045;-78
2024/01/13 05:47:00;;;;;;;0.00;0.00;;;;;;;2.35;84.82;101528.53;4970442;28;20384;-78
2024/01/13 05:49:25;;;;;;;0.00;0.00;;;;;;;2.40;84.78;101534.22;4960705;28;20054;-78
2024/01/13 05:51:50;;;;;;;0.10;0.10;;;;;;;2.34;84.41;101528.72;4959315;28;20038;-78
2024/01/13 05:54:16;;;;;;;0.00;0.00;;;;;;;2.34;84.65;101531.44;4983308;28;20050;-78
2024/01/13 05:56:44;;;;;;;0.00;0.00;;;;;;;2.42;84.59;101555.63;4962676;28;20038;-79
2024/01/13 05:59:09;;;;;;;0.00;0.00;;;;;;;2.37;84.61;101553.47;4957137;28;20041;-78
2024/01/13 06:01:35;;;;;;;0.00;0.00;;;;;;;2.30;84.75;101541.75;4945858;28;20031;-78
2024/01/13 06:04:00;;;;;;;0.00;0.00;;;;;;;2.36;84.99;101554.50;4958183;28;20054;-77
2024/01/13 06:06:26;;;;;;;0.00;0.00;;;;;;;2.37;84.58;101566.97;4937733;28;20034;-78
2024/01/13 06:08:54;;;;;;;0.00;0.00;;;;;;;2.29;85.06;101563.50;4967459;28;20657;-77
2024/01/13 06:11:20;;;;;;;0.00;0.00;;;;;;;2.24;85.15;101574.88;4949247;28;20592;-78
2024/01/13 06:13:45;;;;;;;0.00;0.00;;;;;;;2.29;85.28;101588.63;4953934;28;20039;-78
2024/01/13 06:16:10;;;;;;;0.00;0.00;;;;;;;2.26;85.16;101584.47;4956783;28;20044;-79
2024/01/13 06:18:36;;;;;;;0.00;0.00;;;;;;;2.25;85.22;101581.94;4964114;28;20031;-78
2024/01/13 06:21:01;;;;;;;0.00;0.00;;;;;;;2.25;85.17;101584.66;4960277;28;20057;-77
2024/01/13 06:23:30;;;;;;;0.00;0.00;;;;;;;2.26;85.50;101573.66;4943199;28;20489;-78
2024/01/13 06:25:55;;;;;;;0.00;0.00;;;;;;;2.19;84.94;101566.47;4955394;28;20110;-78
2024/01/13 06:28:21;;;;;;;0.00;0.00;;;;;;;2.26;84.66;101568.28;4956328;28;20105;-77
2024/01/13 06:30:47;;;;;;;0.00;0.00;;;;;;;2.27;84.75;101574.50;4944665;28;20370;-78
2024/01/13 06:33:12;;;;;;;0.00;0.00;;;;;;;2.20;85.27;101562.75;4947781;28;20037;-78
2024/01/13 06:35:38;;;;;;;0.00;0.00;;;;;;;2.17;84.92;101547.75;4968079;28;20043;-77
2024/01/13 06:38:06;;;;;;;0.00;0.00;;;;;;;2.24;85.47;101558.66;4943827;28;20093;-77
2024/01/13 06:40:31;;;;;;;0.00;0.00;;;;;;;2.18;85.38;101541.34;4964843;28;20034;-75
2024/01/13 06:42:57;;;;;;;0.00;0.00;;;;;;;2.27;85.25;101555.59;4971770;28;21007;-78
2024/01/13 06:45:22;;;;;;;0.00;0.00;;;;;;;2.33;85.36;101551.34;4971988;28;20035;-79
2024/01/13 06:47:48;;;;;;;0.00;0.00;;;;;;;2.21;85.42;101538.28;4954336;28;20038;-79
2024/01/13 06:50:13;;;;;;;0.10;0.10;;;;;;;2.26;85.41;101545.81;4971395;28;20026;-77
2024/01/13 06:52:39;;;;;;;0.00;0.00;;;;;;;2.39;85.17;101556.00;4950754;28;20062;-79
2024/01/13 06:55:07;;;;;;;0.00;0.00;;;;;;;2.35;85.21;101543.88;4966038;28;20388;-76
2024/01/13 06:57:40;;;;;;;0.10;0.10;;;;;;;2.32;85.26;101531.59;4971199;28;20062;-78
2024/01/13 07:00:07;;;;;;;0.00;0.00;;;;;;;2.22;85.35;101517.50;4961838;28;20669;-77
2024/01/13 07:02:33;;;;;;;0.00;0.00;;;;;;;2.25;85.50;101527.97;4954479;28;20027;-77
2024/01/13 07:05:00;;;;;;;0.00;0.00;;;;;;;2.29;84.85;101533.81;4940990;28;20030;-79
2024/01/13 07:07:26;;;;;;;0.00;0.00;;;;;;;2.24;85.22;101535.22;4985742;28;20037;-78
2024/01/13 07:09:53;;;;;;;0.00;0.00;;;;;;;2.19;84.58;101529.53;4970370;28;20102;-78
2024/01/13 07:12:19;;;;;;;0.00;0.00;;;;;;;2.12;85.37;101523.19;4985820;28;20061;-77
2024/01/13 07:14:44;;;;;;;0.00;0.00;;;;;;;2.14;85.39;101521.13;4965014;28;20026;-77
2024/01/13 07:17:10;;;;;;;0.00;0.00;;;;;;;2.11;84.69;101502.63;4941468;28;20126;-72
2024/01/13 07:19:36;;;;;;;0.00;0.00;;;;;;;2.05;84.74;101489.88;4964267;28;20147;-72
2024/01/13 07:22:02;;;;;;;0.00;0.00;;;;;;;2.15;85.40;101516.59;4979704;28;20046;-73
2024/01/13 07:24:27;;;;;;;0.00;0.00;;;;;;;2.10;85.18;101514.44;4959448;28;20477;-73
2024/01/13 07:26:57;;;;;;;0.00;0.00;;;;;;;2.00;84.05;101503.06;4961281;28;20033;-74
2024/01/13 07:29:23;;;;;;;0.00;0.00;;;;;;;1.82;84.63;101482.66;4945388;28;20033;-74
2024/01/13 07:31:50;;;;;;;0.00;0.00;;;;;;;1.81;84.23;101494.47;4969323;28;20034;-75
2024/01/13 07:34:16;;;;;;;0.00;0.00;;;;;;;1.80;84.48;101492.78;4973020;28;20080;-74
2024/01/13 07:36:44;;;;;;;0.00;0.00;;;;;;;1.77;84.05;101482.38;4948844;28;20384;-75
2024/01/13 07:39:32;;;;;;;0.00;0.00;;;;;;;1.87;84.47;101498.28;4948046;28;20045;-74
2024/01/13 07:41:58;;;;;;;0.00;0.00;;;;;;;1.76;84.53;101482.56;4974410;28;20022;-74
2024/01/13 07:44:26;;;;;;;0.00;0.00;;;;;;;1.90;84.24;101504.16;4972536;28;20030;-73
2024/01/13 07:46:53;;;;;;;0.00;0.00;;;;;;;1.71;84.48;101477.69;4953976;28;20197;-75
2024/01/13 07:49:35;;;;;;;0.00;0.00;;;;;;;1.91;84.57;101508.53;4959226;28;20468;-73
2024/01/13 07:52:02;;;;;;;0.00;0.00;;;;;;;1.96;84.48;101505.28;4949532;28;20065;-75
2024/01/13 07:54:27;;;;;;;0.00;0.00;;;;;;;1.84;84.01;101477.91;4964192;28;20050;-73
2024/01/13 07:56:55;;;;;;;0.10;0.10;;;;;;;1.98;84.50;101488.94;4945163;28;20031;-76
2024/01/13 07:59:23;;;;;;;0.00;0.00;;;;;;;1.89;84.46;101480.91;4966082;28;20113;-74
2024/01/13 08:01:48;;;;;;;0.00;0.00;;;;;;;2.00;84.31;101492.25;4963243;28;20014;-73
2024/01/13 08:04:26;;;;;;;0.00;0.00;;;;;;;1.92;84.46;101480.53;4966388;28;20030;-74
2024/01/13 08:06:52;;;;;;;0.00;0.00;;;;;;;1.81;84.75;101448.63;4952467;28;20130;-74
2024/01/13 08:09:17;;;;;;;0.00;0.00;;;;;;;2.00;84.33;101476.94;4973738;28;20030;-72
2024/01/13 08:11:43;;;;;;;0.00;0.00;;;;;;;1.94;84.52;101455.22;4963896;28;20035;-73
2024/01/13 08:14:08;;;;;;;0.00;0.00;;;;;;;1.95;84.38;101454.22;4966094;28;20035;-74
2024/01/13 08:16:34;;;;;;;0.10;0.10;;;;;;;1.99;84.60;101456.38;4973158;28;20370;-74
2024/01/13 08:19:01;;;;;;;0.00;0.00;;;;;;;1.98;84.42;101451.16;4976630;28;20058;-75
2024/01/13 08:21:27;;;;;;;0.00;0.00;;;;;;;1.94;84.57;101468.72;4983575;28;20030;-74
2024/01/13 08:23:54;;;;;;;0.00;0.00;;;;;;;1.76;84.05;101442.91;4970777;28;20031;-73
2024/01/13 08:26:20;;;;;;;0.10;0.10;;;;;;;1.82;84.04;101458.38;4966679;28;20113;-74
2024/01/13 08:28:48;;;;;;;0.00;0.00;;;;;;;1.99;84.17;101490.59;4981058;28;20383;-74
2024/01/13 08:31:13;;;;;;;0.10;0.10;;;;;;;2.00;84.23;101478.78;4969884;28;20046;-73
2024/01/13 08:33:39;;;;;;;0.00;0.00;;;;;;;1.98;84.08;101470.03;4973070;28;20153;-73
2024/01/13 08:36:05;;;;;;;0.00;0.00;;;;;;;1.85;84.30;101455.31;4964089;28;20034;-74
2024/01/13 08:38:31;;;;;;;0.05;0.05;;;;;;;1.97;84.23;101465.66;4955123;28;20069;-72
2024/01/13 08:40:56;;;;;;;0.00;0.00;;;;;;;2.02;84.22;101471.34;4966609;28;20039;-74
2024/01/13 08:43:24;;;;;;;0.00;0.00;;;;;;;2.01;84.21;101480.47;4954745;28;20714;-72
2024/01/13 08:45:50;;;;;;;0.00;0.00;;;;;;;1.98;83.75;101475.44;4980146;28;20030;-75
2024/01/13 08:48:15;;;;;;;0.10;0.10;;;;;;;1.83;83.86;101465.44;4966425;28;20530;-73
2024/01/13 08:50:41;;;;;;;0.00;0.00;;;;;;;1.77;84.32;101462.63;4955888;28;20035;-73
2024/01/13 08:53:06;;;;;;;0.10;0.10;;;;;;;1.89;84.68;101475.50;4971596;28;20062;-74
2024/01/13 08:56:01;;;;;;;0.00;0.00;;;;;;;1.90;84.49;101487.97;4953135;28;20029;-75
2024/01/13 08:58:40;;;;;;;0.10;0.10;;;;;;;1.67;83.91;101454.81;4959427;28;20035;-74
2024/01/13 09:01:06;;;;;;;0.00;0.00;;;;;;;1.62;84.28;101446.41;4980363;28;20034;-75
2024/01/13 09:03:41;;;;;;;0.00;0.00;;;;;;;1.59;84.37;101441.38;4972133;28;20033;-73
2024/01/13 09:06:07;;;;;;;0.00;0.00;;;;;;;1.84;84.35;101483.31;4977134;28;20145;-73
2024/01/13 09:08:32;;;;;;;0.00;0.00;;;;;;;1.70;83.84;101459.84;4987121;28;20031;-73
2024/01/13 09:11:05;;;;;;;0.00;0.00;;;;;;;1.76;84.15;101461.81;4947300;28;20035;-74
2024/01/13 09:13:31;;;;;;;0.00;0.00;;;;;;;1.73;83.93;101454.91;4972433;28;20082;-75
2024/01/13 09:15:58;;;;;;;0.00;0.00;;;;;;;1.71;83.62;101450.75;4953768;28;20035;-73
2024/01/13 09:18:23;;;;;;;0.00;0.00;;;;;;;1.81;83.33;101480.13;4985136;28;20031;-74
2024/01/13 09:20:49;;;;;;;0.00;0.00;;;;;;;1.77;83.02;101455.41;4969441;28;21485;-72
2024/01/13 09:23:14;;;;;;;0.00;0.00;;;;;;;1.80;82.81;101459.59;4956585;28;20081;-75
2024/01/13 09:25:40;;;;;;;0.00;0.00;;;;;;;1.86;83.38;101459.69;4941404;28;20030;-72
2024/01/13 09:28:07;;;;;;;0.10;0.10;;;;;;;2.00;82.77;101470.69;4947145;28;20022;-72
2024/01/13 09:30:33;;;;;;;0.00;0.00;;;;;;;1.91;83.07;101449.19;4959986;28;20049;-73
2024/01/13 09:32:58;;;;;;;0.00;0.00;;;;;;;1.92;82.72;101437.34;4947030;28;20039;-72
2024/01/13 09:35:24;;;;;;;0.00;0.00;;;;;;;2.08;82.56;101457.94;4932542;28;20053;-77
2024/01/13 09:37:49;;;;;;;0.00;0.00;;;;;;;2.08;82.44;101425.56;4968953;28;20019;-77
2024/01/13 09:40:17;;;;;;;0.00;0.00;;;;;;;2.42;82.67;101455.72;4989057;28;20118;-76
2024/01/13 09:42:50;;;;;;;0.10;0.10;;;;;;;2.62;82.65;101448.72;4987548;28;20106;-77
2024/01/13 09:45:17;;;;;;;0.00;0.00;;;;;;;2.68;82.40;101435.50;4961004;28;20034;-75
2024/01/13 09:47:46;;;;;;;0.00;0.00;;;;;;;2.83;81.53;101444.41;4943196;28;20037;-77
2024/01/13 09:50:11;;;;;;;0.00;0.00;;;;;;;2.86;81.22;101437.78;4958348;28;20029;-75
2024/01/13 09:52:38;;;;;;;0.00;0.00;;;;;;;2.90;81.38;101433.69;4953747;28;20026;-78
2024/01/13 09:55:07;;;;;;;0.00;0.00;;;;;;;3.05;80.79;101441.75;4961110;28;20025;-77
2024/01/13 09:57:33;;;;;;;0.00;0.00;;;;;;;3.10;80.49;101439.31;4974135;28;20558;-76
2024/01/13 09:59:58;;;;;;;0.00;0.00;;;;;;;3.14;80.43;101436.03;4959608;28;20091;-77
2024/01/13 10:02:24;;;;;;;0.00;0.00;;;;;;;3.20;80.24;101434.44;4941843;28;20039;-78
2024/01/13 10:04:49;;;;;;;0.00;0.00;;;;;;;3.26;80.39;101422.00;4947417;28;20027;-77
2024/01/13 10:07:15;;;;;;;0.00;0.00;;;;;;;3.37;80.60;101424.19;4961731;28;20063;-77
2024/01/13 10:09:40;;;;;;;0.00;0.00;;;;;;;3.40;79.80;101413.00;4967163;28;20093;-78
2024/01/13 10:12:07;;;;;;;0.00;0.00;;;;;;;3.39;79.98;101426.69;4966299;28;20113;-75
2024/01/13 10:14:38;;;;;;;0.10;0.10;;;;;;;3.40;80.45;101425.66;4964566;28;20508;-79
2024/01/13 10:17:04;;;;;;;0.00;0.00;;;;;;;3.54;79.70;101426.63;4954832;28;20026;-78
2024/01/13 10:19:36;;;;;;;0.00;0.00;;;;;;;3.70;79.98;101428.22;4976775;28;20500;-77
2024/01/13 10:22:02;;;;;;;0.00;0.00;;;;;;;3.78;79.00;101426.22;4958891;28;20062;-78
2024/01/13 10:24:28;;;;;;;0.00;0.00;;;;;;;3.80;79.20;101417.91;4944336;28;20022;-78
2024/01/13 10:26:54;;;;;;;0.00;0.00;;;;;;;3.82;78.23;101416.66;4986407;28;20488;-80
2024/01/13 10:29:20;;;;;;;0.00;0.00;;;;;;;3.73;77.22;101414.31;4954702;28;20023;-77
2024/01/13 10:31:48;;;;;;;0.00;0.00;;;;;;;3.70;77.26;101434.47;4959579;28;20031;-79
2024/01/13 10:34:17;;;;;;;0.00;0.00;;;;;;;3.62;76.68;101427.34;4974470;28;20034;-78
2024/01/13 10:36:43;;;;;;;0.00;0.00;;;;;;;3.57;76.04;101412.72;4959938;28;20362;-80
2024/01/13 10:39:09;;;;;;;0.00;0.00;;;;;;;3.40;75.17;101390.50;4950971;28;20030;-78
2024/01/13 10:41:55;;;;;;;0.00;0.00;;;;;;;3.56;74.80;101419.97;4960411;28;20085;-79
2024/01/13 10:44:30;;;;;;;0.10;0.10;;;;;;;3.73;75.53;101417.00;4960766;28;20101;-79
2024/01/13 10:47:00;;;;;;;0.00;0.00;;;;;;;3.67;75.04;101389.69;4965601;28;20026;-78
2024/01/13 10:49:33;;;;;;;0.00;0.00;;;;;;;3.79;74.29;101399.97;4978009;28;20027;-77
2024/01/13 10:51:59;;;;;;;0.00;0.00;;;;;;;3.87;74.17;101402.56;4966691;28;20038;-78
2024/01/13 10:54:27;;;;;;;0.00;0.00;;;;;;;3.77;73.62;101396.66;4977876;28;20051;-80
2024/01/13 10:56:53;;;;;;;0.00;0.00;;;;;;;3.81;74.21;101397.91;4960418;28;20361;-78
2024/01/13 10:59:19;;;;;;;0.00;0.00;;;;;;;3.92;73.97;101400.06;4954766;28;20033;-78
2024/01/13 11:01:46;;;;;;;0.00;0.00;;;;;;;4.00;73.91;101399.06;4970880;28;20452;-78
2024/01/13 11:04:13;;;;;;;0.00;0.00;;;;;;;3.97;73.58;101397.63;4974663;28;20017;-78
2024/01/13 11:06:39;;;;;;;0.00;0.00;;;;;;;3.89;73.47;101400.47;4958112;28;20037;-78
2024/01/13 11:09:07;;;;;;;0.00;0.00;;;;;;;3.75;74.08;101387.88;4963408;28;20026;-79
2024/01/13 11:11:40;;;;;;;0.00;0.00;;;;;;;3.84;73.65;101386.69;4989796;28;20026;-77
2024/01/13 11:14:11;;;;;;;0.10;0.10;;;;;;;3.87;74.00;101391.72;4962019;28;20030;-78
2024/01/13 11:16:38;;;;;;;0.00;0.00;;;;;;;3.83;73.83;101374.22;4973882;28;20022;-77
2024/01/13 11:19:07;;;;;;;0.00;0.00;;;;;;;3.99;73.55;101379.31;4955987;28;20031;-78
2024/01/13 11:21:32;;;;;;;0.00;0.00;;;;;;;4.02;74.21;101368.06;5002802;28;20022;-77
2024/01/13 11:24:19;;;;;;;0.00;0.00;;;;;;;4.00;74.10;101353.91;4963275;28;20034;-77
2024/01/13 11:26:49;;;;;;;0.00;0.00;;;;;;;4.04;73.66;101365.16;4964060;28;20065;-71
2024/01/13 11:29:15;;;;;;;0.00;0.00;;;;;;;4.06;73.66;101362.25;4970222;28;20057;-73
2024/01/13 11:31:42;;;;;;;0.00;0.00;;;;;;;4.14;73.84;101359.41;4968596;28;20049;-71